Time;durP1;ratioP1;P1;durP2;ratioP2;P2;SDS_P1;SDS_P2;PMS_P1;PMS_P2;Temp;Humidity;BMP_temperature;BMP_pressure;BME280_temperature;BME280_humidity;BME280_pressure;Samples;Min_cycle;Max_cycle;Signal;HPM_P1;HPM_P2
2022/12/04 00:01:25;;;;;;;51.10;33.72;;;;;;;1.18;100.00;101697.47;5006642;28;20093;-49
2022/12/04 00:03:54;;;;;;;54.10;36.30;;;;;;;1.32;100.00;101700.34;4991651;28;20088;-48
2022/12/04 00:06:23;;;;;;;53.60;34.70;;;;;;;1.29;99.49;101701.53;5007333;28;20105;-46
2022/12/04 00:08:51;;;;;;;54.53;34.22;;;;;;;1.27;99.45;101695.53;4996861;28;20415;-47
2022/12/04 00:11:22;;;;;;;46.35;29.48;;;;;;;1.23;100.00;101702.28;4994487;28;20042;-49
2022/12/04 00:13:50;;;;;;;54.13;35.13;;;;;;;1.24;99.99;101696.72;4999078;28;20535;-48
2022/12/04 00:16:20;;;;;;;51.30;33.97;;;;;;;1.21;99.83;101699.78;4997185;28;20042;-46
2022/12/04 00:18:48;;;;;;;50.13;34.08;;;;;;;1.19;99.94;101701.81;5011842;28;20500;-48
2022/12/04 00:21:18;;;;;;;45.75;29.15;;;;;;;1.22;100.00;101693.38;4997299;28;20448;-48
2022/12/04 00:23:45;;;;;;;50.33;33.97;;;;;;;1.20;99.51;101692.75;4972097;28;20066;-48
2022/12/04 00:26:19;;;;;;;49.45;32.28;;;;;;;1.12;100.00;101692.00;5006857;28;20105;-46
2022/12/04 00:28:48;;;;;;;48.80;32.45;;;;;;;1.11;100.00;101691.19;5009785;28;20443;-50
2022/12/04 00:31:21;;;;;;;51.13;34.25;;;;;;;1.12;100.00;101683.97;5010050;28;20046;-51
2022/12/04 00:33:49;;;;;;;53.63;34.78;;;;;;;1.10;100.00;101689.50;5000933;28;20042;-50
2022/12/04 00:36:20;;;;;;;53.78;32.58;;;;;;;1.09;100.00;101692.38;4975119;28;20051;-48
2022/12/04 00:38:48;;;;;;;47.03;30.90;;;;;;;1.12;100.00;101690.16;4995686;28;20043;-46
2022/12/04 00:41:18;;;;;;;52.00;34.15;;;;;;;1.04;100.00;101687.56;4985593;28;20049;-49
2022/12/04 00:43:46;;;;;;;50.63;34.75;;;;;;;1.00;100.00;101678.22;4978282;28;20062;-51
2022/12/04 00:46:14;;;;;;;52.47;35.08;;;;;;;1.03;100.00;101680.50;5012949;28;20062;-48
2022/12/04 00:48:41;;;;;;;47.63;30.85;;;;;;;1.08;100.00;101678.09;5009900;28;20041;-48
2022/12/04 00:51:12;;;;;;;52.92;36.15;;;;;;;1.08;100.00;101680.78;5009446;28;20050;-47
2022/12/04 00:53:40;;;;;;;45.58;31.77;;;;;;;1.09;100.00;101674.44;5014092;28;20046;-47
2022/12/04 00:56:13;;;;;;;45.80;32.83;;;;;;;1.15;100.00;101676.34;5010272;28;20046;-45
2022/12/04 00:58:41;;;;;;;47.17;31.23;;;;;;;1.14;100.00;101671.19;5009984;28;20092;-47
2022/12/04 01:01:14;;;;;;;48.53;33.30;;;;;;;1.15;100.00;101676.34;4993750;28;20047;-48
2022/12/04 01:03:42;;;;;;;51.65;35.20;;;;;;;1.19;100.00;101674.16;4965921;28;20077;-47
2022/12/04 01:06:19;;;;;;;48.25;32.92;;;;;;;1.08;100.00;101680.78;4978694;28;20046;-49
2022/12/04 01:08:47;;;;;;;47.95;31.33;;;;;;;1.13;100.00;101678.41;5012699;28;20030;-50
2022/12/04 01:11:15;;;;;;;47.00;31.85;;;;;;;1.20;100.00;101683.84;5005247;28;20050;-50
2022/12/04 01:13:43;;;;;;;53.88;36.60;;;;;;;1.22;100.00;101679.97;5002294;28;20045;-49
2022/12/04 01:16:22;;;;;;;52.75;36.28;;;;;;;1.21;100.00;101689.03;5002635;28;20559;-47
2022/12/04 01:18:51;;;;;;;50.28;33.55;;;;;;;1.24;100.00;101694.03;5009749;28;20030;-46
2022/12/04 01:21:20;;;;;;;50.83;34.08;;;;;;;1.24;99.86;101694.03;5007908;28;20489;-48
2022/12/04 01:23:48;;;;;;;44.05;30.05;;;;;;;1.14;100.00;101693.50;5009482;28;20046;-47
2022/12/04 01:26:15;;;;;;;51.95;35.20;;;;;;;1.15;100.00;101691.63;5005373;28;20460;-46
2022/12/04 01:28:43;;;;;;;49.67;35.00;;;;;;;1.14;100.00;101684.59;4990669;28;20038;-47
2022/12/04 01:31:16;;;;;;;54.15;34.90;;;;;;;1.05;100.00;101694.59;5013712;28;20068;-48
2022/12/04 01:33:44;;;;;;;47.58;32.53;;;;;;;0.97;100.00;101692.81;4999751;28;20381;-46
2022/12/04 01:36:15;;;;;;;51.95;35.08;;;;;;;1.00;100.00;101691.63;4993417;28;20042;-47
2022/12/04 01:38:43;;;;;;;47.72;31.35;;;;;;;1.02;100.00;101689.59;5007532;28;20073;-47
2022/12/04 01:41:12;;;;;;;45.65;32.10;;;;;;;1.04;100.00;101695.63;4996449;28;20042;-49
2022/12/04 01:43:40;;;;;;;47.58;33.53;;;;;;;0.98;100.00;101690.97;4996060;28;20107;-44
2022/12/04 01:46:08;;;;;;;52.97;34.20;;;;;;;1.03;100.00;101692.09;4955085;28;20047;-49
2022/12/04 01:48:53;;;;;;;49.00;33.00;;;;;;;1.06;100.00;101683.69;4961097;28;20047;-48
2022/12/04 01:51:31;;;;;;;48.58;33.60;;;;;;;1.08;100.00;101683.47;4974066;28;20101;-50
2022/12/04 01:54:13;;;;;;;49.25;34.28;;;;;;;1.15;100.00;101676.34;4957749;28;20055;-47
2022/12/04 01:57:02;;;;;;;45.67;32.13;;;;;;;1.25;100.00;101674.25;4950961;28;20493;-47
2022/12/04 01:59:37;;;;;;;48.38;31.13;;;;;;;1.30;100.00;101675.53;4975969;28;20043;-49
2022/12/04 02:02:09;;;;;;;49.92;33.35;;;;;;;1.28;99.95;101671.19;4967771;28;20086;-51
2022/12/04 02:04:38;;;;;;;44.95;31.10;;;;;;;1.22;100.00;101669.22;4973194;28;20496;-50
2022/12/04 02:07:06;;;;;;;46.28;33.15;;;;;;;1.12;100.00;101675.91;4955690;28;20061;-49
2022/12/04 02:09:35;;;;;;;50.70;34.55;;;;;;;1.08;100.00;101667.38;4965930;28;20051;-46
2022/12/04 02:12:23;;;;;;;47.50;33.75;;;;;;;1.10;100.00;101676.06;4973130;28;20039;-50
2022/12/04 02:15:27;;;;;;;53.85;36.42;;;;;;;1.16;100.00;101669.97;4957226;28;20046;-48
2022/12/04 02:18:16;;;;;;;47.17;32.65;;;;;;;1.25;100.00;101673.38;4955293;28;20047;-51
2022/12/04 02:20:58;;;;;;;53.13;35.50;;;;;;;1.26;100.00;101678.59;4961178;28;20195;-52
2022/12/04 02:23:26;;;;;;;48.08;34.05;;;;;;;1.24;99.82;101677.94;4955542;28;20051;-47
2022/12/04 02:26:02;;;;;;;51.65;35.55;;;;;;;1.20;100.00;101679.34;4966819;28;20042;-45
2022/12/04 02:28:54;;;;;;;52.85;36.22;;;;;;;1.14;100.00;101676.56;4966789;28;20047;-48
2022/12/04 02:31:27;;;;;;;52.20;34.63;;;;;;;1.04;100.00;101676.84;4963168;28;20051;-48
2022/12/04 02:34:04;;;;;;;52.17;35.92;;;;;;;1.13;100.00;101672.19;4972492;28;20121;-47
2022/12/04 02:36:35;;;;;;;50.35;34.25;;;;;;;1.11;100.00;101677.75;4968229;28;20097;-46
2022/12/04 02:39:32;;;;;;;46.83;32.15;;;;;;;1.11;100.00;101671.53;4967333;28;20036;-47
2022/12/04 02:42:11;;;;;;;45.20;32.75;;;;;;;1.22;100.00;101666.53;4969761;28;20050;-46
2022/12/04 02:44:43;;;;;;;53.05;36.95;;;;;;;1.24;100.00;101677.94;4962944;28;20045;-44
2022/12/04 02:47:13;;;;;;;49.78;36.13;;;;;;;1.16;100.00;101679.91;5004342;28;20055;-46
2022/12/04 02:49:46;;;;;;;55.38;37.60;;;;;;;1.08;100.00;101667.38;4977114;28;20043;-46
2022/12/04 02:52:17;;;;;;;48.85;34.60;;;;;;;1.05;100.00;101673.13;4960520;28;20098;-49
2022/12/04 02:54:52;;;;;;;49.22;34.53;;;;;;;1.14;100.00;101665.81;4994006;28;20030;-48
2022/12/04 02:57:23;;;;;;;43.75;30.85;;;;;;;1.14;100.00;101671.19;4996515;28;20042;-49
2022/12/04 02:59:53;;;;;;;48.72;33.08;;;;;;;1.14;100.00;101655.91;4991556;28;20035;-48
2022/12/04 03:02:29;;;;;;;38.80;27.55;;;;;;;1.13;100.00;101654.25;4981894;28;20398;-45
2022/12/04 03:05:00;;;;;;;44.25;31.70;;;;;;;1.05;100.00;101652.47;4994369;28;20390;-47
2022/12/04 03:07:38;;;;;;;43.10;29.73;;;;;;;1.09;100.00;101652.94;4995578;28;20105;-46
2022/12/04 03:10:11;;;;;;;50.80;36.60;;;;;;;1.17;100.00;101657.38;4992869;28;20039;-48
2022/12/04 03:13:10;;;;;;;46.83;33.35;;;;;;;1.21;100.00;101646.09;4970537;28;20050;-52
2022/12/04 03:15:53;;;;;;;51.80;35.55;;;;;;;1.21;100.00;101646.09;4993960;28;20073;-51
2022/12/04 03:18:27;;;;;;;47.50;32.45;;;;;;;1.15;100.00;101646.00;4994321;28;20049;-47
2022/12/04 03:21:02;;;;;;;49.85;35.53;;;;;;;1.15;100.00;101646.81;4966177;28;20047;-47
2022/12/04 03:23:34;;;;;;;50.13;34.63;;;;;;;1.17;100.00;101650.16;4983593;28;20121;-48
2022/12/04 03:26:11;;;;;;;49.78;35.15;;;;;;;1.13;100.00;101651.56;4971213;28;20392;-47
2022/12/04 03:29:12;;;;;;;52.75;36.83;;;;;;;1.10;100.00;101649.25;4995802;28;20184;-51
2022/12/04 03:31:48;;;;;;;41.42;29.33;;;;;;;1.12;100.00;101655.25;4989545;28;20035;-48
2022/12/04 03:34:24;;;;;;;48.50;33.90;;;;;;;1.13;100.00;101653.41;4993253;28;20101;-50
2022/12/04 03:36:53;;;;;;;;;;;;;;;1.16;100.00;101648.50;4989821;28;20050;-45
2022/12/04 03:39:25;;;;;;;51.13;36.60;;;;;;;1.11;100.00;101655.44;4995014;28;19922;-47
2022/12/04 03:42:03;;;;;;;48.08;33.25;;;;;;;1.13;100.00;101643.53;4992686;28;20073;-49
2022/12/04 03:44:45;;;;;;;48.28;33.65;;;;;;;1.15;100.00;101641.47;4989627;28;20516;-49
2022/12/04 03:47:18;;;;;;;55.35;38.72;;;;;;;1.13;100.00;101643.53;4975792;28;20058;-47
2022/12/04 03:49:47;;;;;;;52.83;35.83;;;;;;;1.08;100.00;101645.91;4954425;28;20038;-51
2022/12/04 03:52:50;;;;;;;47.95;35.00;;;;;;;1.09;100.00;101642.22;4976036;28;20047;-46
2022/12/04 03:55:22;;;;;;;52.85;36.53;;;;;;;0.99;100.00;101636.31;4934592;28;20051;-49
2022/12/04 03:57:51;;;;;;;47.38;32.00;;;;;;;1.04;100.00;101640.09;4956724;28;20066;-45
2022/12/04 04:00:21;;;;;;;48.92;33.65;;;;;;;1.11;100.00;101640.19;4954967;29;20051;-48
2022/12/04 04:02:57;;;;;;;45.40;31.88;;;;;;;1.13;100.00;101642.66;4963606;28;20051;-47
2022/12/04 04:05:25;;;;;;;;;;;;;;;1.20;100.00;101644.44;4970479;28;20043;-47
2022/12/04 04:08:24;;;;;;;52.85;33.85;;;;;;;1.14;100.00;101644.34;4975925;28;19922;-52
2022/12/04 04:10:48;;;;;;;;;;;;;;;1.17;100.00;101644.78;4975378;28;20098;-47
2022/12/04 04:24:42;;;;;;;46.42;32.70;;;;;;;1.21;100.00;101646.09;4972049;28;20046;-46
2022/12/04 04:27:10;;;;;;;52.22;36.60;;;;;;;1.21;100.00;101643.41;4963556;28;20043;-47
2022/12/04 04:29:39;;;;;;;56.65;38.22;;;;;;;1.22;100.00;101644.25;4974808;28;20051;-48
2022/12/04 04:32:18;;;;;;;51.78;33.75;;;;;;;1.09;100.00;101638.72;4971069;28;20098;-49
2022/12/04 04:35:03;;;;;;;50.65;35.40;;;;;;;1.08;100.00;101634.34;4958895;28;20556;-47
2022/12/04 04:37:55;;;;;;;46.25;30.95;;;;;;;1.15;100.00;101640.63;4975460;28;20038;-52
2022/12/04 04:40:29;;;;;;;53.13;35.25;;;;;;;1.12;100.00;101636.47;4975546;28;20043;-47
2022/12/04 04:43:17;;;;;;;44.50;31.67;;;;;;;1.15;100.00;101635.25;4961654;28;20386;-48
2022/12/04 04:46:03;;;;;;;43.90;29.77;;;;;;;1.14;100.00;101642.50;4959745;28;20102;-44
2022/12/04 04:48:34;;;;;;;45.17;31.27;;;;;;;1.13;100.00;101648.88;5011104;28;20048;-46
2022/12/04 04:51:03;;;;;;;50.28;35.47;;;;;;;1.11;100.00;101640.19;4985189;28;20089;-47
2022/12/04 04:53:53;;;;;;;49.63;33.00;;;;;;;1.14;100.00;101642.50;5011468;28;20049;-49
2022/12/04 04:56:22;;;;;;;46.45;31.83;;;;;;;1.12;100.00;101647.22;4988372;28;20042;-48
2022/12/04 04:58:50;;;;;;;46.33;32.80;;;;;;;1.12;100.00;101643.69;4960862;28;20405;-49
2022/12/04 05:01:20;;;;;;;53.47;36.35;;;;;;;1.17;100.00;101644.78;4999792;28;20046;-46
2022/12/04 05:03:47;;;;;;;50.25;34.33;;;;;;;1.14;100.00;101636.31;5004229;28;20050;-48
2022/12/04 05:06:15;;;;;;;53.17;35.30;;;;;;;1.08;100.00;101642.38;5005558;28;20052;-48
2022/12/04 05:08:43;;;;;;;46.72;32.83;;;;;;;1.10;100.00;101637.69;5008927;28;20068;-46
2022/12/04 05:11:14;;;;;;;46.97;33.97;;;;;;;1.03;100.00;101642.94;4986374;28;20054;-50
2022/12/04 05:13:42;;;;;;;49.67;34.72;;;;;;;1.08;100.00;101639.72;4981052;28;20034;-46
2022/12/04 05:16:12;;;;;;;44.03;30.05;;;;;;;1.14;100.00;101642.50;5013903;28;20097;-48
2022/12/04 05:18:41;;;;;;;53.88;36.15;;;;;;;1.15;100.00;101646.00;4994441;28;20530;-47
2022/12/04 05:21:15;;;;;;;51.00;34.30;;;;;;;1.20;100.00;101644.44;4995231;28;20109;-49
2022/12/04 05:23:42;;;;;;;51.60;35.03;;;;;;;1.28;100.00;101644.34;4998846;28;20228;-46
2022/12/04 05:26:11;;;;;;;53.83;38.70;;;;;;;1.27;100.00;101655.25;4994433;28;20130;-45
2022/12/04 05:28:40;;;;;;;55.53;38.65;;;;;;;1.17;100.00;101655.53;4976360;28;20042;-46
2022/12/04 05:31:08;;;;;;;59.20;40.10;;;;;;;1.08;100.00;101651.28;4996388;28;20058;-45
2022/12/04 05:33:36;;;;;;;59.95;40.30;;;;;;;1.01;100.00;101658.38;4987515;28;20038;-49
2022/12/04 05:36:08;;;;;;;54.50;37.40;;;;;;;0.99;100.00;101652.41;4990849;28;20038;-49
2022/12/04 05:38:36;;;;;;;53.80;37.28;;;;;;;1.03;100.00;101649.16;4996301;28;20052;-47
2022/12/04 05:41:05;;;;;;;44.67;30.02;;;;;;;1.09;100.00;101650.28;5007207;28;20064;-49
2022/12/04 05:43:33;;;;;;;53.40;36.85;;;;;;;1.08;100.00;101645.06;5013568;28;20050;-48
2022/12/04 05:46:06;;;;;;;48.70;36.35;;;;;;;1.11;100.00;101645.56;5003158;28;20030;-49
2022/12/04 05:48:34;;;;;;;58.42;37.80;;;;;;;1.11;100.00;101645.56;4994718;28;20377;-52
2022/12/04 05:51:09;;;;;;;54.47;38.08;;;;;;;1.05;100.00;101649.78;4993762;28;20046;-48
2022/12/04 05:53:37;;;;;;;51.75;35.60;;;;;;;1.03;100.00;101642.94;4996156;28;20054;-49
2022/12/04 05:56:06;;;;;;;52.38;37.25;;;;;;;1.05;100.00;101640.91;5013087;28;20046;-47
2022/12/04 05:58:36;;;;;;;50.83;36.05;;;;;;;1.08;100.00;101643.22;5009612;28;20048;-47
2022/12/04 06:01:12;;;;;;;56.75;38.28;;;;;;;1.09;100.00;101631.47;4998983;28;20493;-49
2022/12/04 06:03:39;;;;;;;47.90;34.37;;;;;;;1.10;100.00;101637.69;4986840;28;20034;-48
2022/12/04 06:06:15;;;;;;;53.35;37.53;;;;;;;1.06;100.00;101626.50;5012382;28;20064;-49
2022/12/04 06:08:48;;;;;;;53.28;36.80;;;;;;;1.13;100.00;101631.94;4992153;28;20500;-49
2022/12/04 06:11:19;;;;;;;51.97;36.45;;;;;;;1.10;100.00;101625.09;5000745;28;20038;-50
2022/12/04 06:13:48;;;;;;;50.67;36.33;;;;;;;1.13;100.00;101616.69;5009599;28;20049;-52
2022/12/04 06:16:29;;;;;;;55.78;36.30;;;;;;;0.96;100.00;101617.88;5014375;28;20470;-46
2022/12/04 06:19:03;;;;;;;50.83;35.25;;;;;;;0.98;100.00;101623.88;5003577;28;20036;-48
2022/12/04 06:21:32;;;;;;;49.60;35.30;;;;;;;1.01;100.00;101624.38;5006861;28;20046;-49
2022/12/04 06:24:00;;;;;;;53.97;36.65;;;;;;;1.04;100.00;101629.34;4970680;28;20040;-49
2022/12/04 06:26:28;;;;;;;53.72;36.50;;;;;;;0.99;100.00;101623.72;4999307;28;20514;-48
2022/12/04 06:28:57;;;;;;;48.58;34.58;;;;;;;1.01;100.00;101624.38;4998336;28;20493;-48
2022/12/04 06:31:26;;;;;;;51.15;35.75;;;;;;;1.05;100.00;101631.00;5016069;28;20046;-48
2022/12/04 06:33:55;;;;;;;42.53;31.65;;;;;;;0.99;100.00;101637.13;4981033;28;20125;-50
2022/12/04 06:36:23;;;;;;;52.05;35.17;;;;;;;1.05;100.00;101630.19;5001284;28;20080;-47
2022/12/04 06:38:53;;;;;;;47.42;33.55;;;;;;;1.05;100.00;101633.69;4997778;28;20046;-49
2022/12/04 06:41:21;;;;;;;50.03;35.92;;;;;;;1.00;100.00;101632.59;5001207;28;20152;-50
2022/12/04 06:43:50;;;;;;;51.92;35.55;;;;;;;1.06;100.00;101634.53;4994173;28;20489;-48
2022/12/04 06:46:21;;;;;;;48.83;34.67;;;;;;;1.07;100.00;101636.19;5012000;28;20703;-50
2022/12/04 06:48:49;;;;;;;44.33;33.38;;;;;;;1.00;100.00;101636.09;4286075;28;10000716;-50
2022/12/04 06:51:27;;;;;;;42.28;31.55;;;;;;;1.02;100.00;101635.94;5001135;28;20045;-50
2022/12/04 06:53:55;;;;;;;44.03;32.67;;;;;;;1.02;100.00;101643.97;4968989;28;20081;-49
2022/12/04 06:56:25;;;;;;;50.95;34.22;;;;;;;1.05;100.00;101651.66;4992320;28;20033;-50
2022/12/04 06:58:54;;;;;;;44.60;33.47;;;;;;;0.95;100.00;101653.78;4988942;28;20046;-49
2022/12/04 07:01:24;;;;;;;45.13;32.53;;;;;;;0.96;100.00;101647.38;4961593;28;20092;-49
2022/12/04 07:03:53;;;;;;;45.35;32.08;;;;;;;1.05;100.00;101651.66;5012628;28;20108;-48
2022/12/04 07:06:29;;;;;;;47.00;32.47;;;;;;;1.11;100.00;101644.69;5005757;28;20058;-49
2022/12/04 07:09:00;;;;;;;43.60;30.55;;;;;;;1.06;100.00;101643.41;4993955;28;20157;-50
2022/12/04 07:11:28;;;;;;;44.83;31.75;;;;;;;1.09;100.00;101652.94;5012925;28;20491;-51
2022/12/04 07:13:56;;;;;;;46.92;32.80;;;;;;;1.02;100.00;101657.38;5004444;28;20145;-49
2022/12/04 07:16:25;;;;;;;43.10;32.30;;;;;;;0.97;100.00;101659.81;4968112;28;20603;-48
2022/12/04 07:18:53;;;;;;;35.60;22.67;;;;;;;0.98;100.00;101666.81;4994552;28;20050;-48
2022/12/04 07:21:23;;;;;;;43.25;31.80;;;;;;;1.02;100.00;101663.59;4995077;28;20443;-51
2022/12/04 07:23:52;;;;;;;43.75;31.50;;;;;;;1.09;100.00;101665.53;5012438;28;20049;-49
2022/12/04 07:26:20;;;;;;;46.53;32.65;;;;;;;1.06;100.00;101669.44;5007347;28;20050;-48
2022/12/04 07:28:48;;;;;;;44.85;30.85;;;;;;;1.05;100.00;101665.88;4996134;28;20050;-49
2022/12/04 07:31:19;;;;;;;42.35;31.02;;;;;;;1.10;100.00;101675.25;4968034;28;20097;-48
2022/12/04 07:33:47;;;;;;;41.85;31.20;;;;;;;1.13;100.00;101675.72;4977219;28;20051;-49
2022/12/04 07:36:16;;;;;;;41.47;29.90;;;;;;;1.12;100.00;101682.09;4970495;28;20065;-47
2022/12/04 07:38:45;;;;;;;40.60;29.50;;;;;;;1.12;100.00;101676.72;4988273;28;20046;-46
2022/12/04 07:41:13;;;;;;;40.55;30.52;;;;;;;1.13;100.00;101675.72;4991141;28;20054;-48
2022/12/04 07:43:41;;;;;;;38.38;27.08;;;;;;;1.06;100.00;101670.25;4972611;28;20042;-47
2022/12/04 07:46:18;;;;;;;39.88;28.95;;;;;;;0.99;100.00;101674.69;4983407;28;20042;-50
2022/12/04 07:48:46;;;;;;;38.33;28.40;;;;;;;0.95;100.00;101678.75;4967618;28;20146;-47
2022/12/04 07:51:19;;;;;;;41.28;29.95;;;;;;;1.00;100.00;101670.16;4975200;28;20042;-49
2022/12/04 07:53:48;;;;;;;41.28;29.27;;;;;;;1.01;100.00;101671.81;4989678;28;20097;-50
2022/12/04 07:56:16;;;;;;;42.65;30.40;;;;;;;1.05;100.00;101673.13;4973574;28;20093;-49
2022/12/04 07:58:43;;;;;;;38.95;28.80;;;;;;;1.09;100.00;101679.78;4958061;28;20038;-48
2022/12/04 08:01:15;;;;;;;38.72;29.30;;;;;;;1.10;100.00;101676.06;4991834;28;20117;-49
2022/12/04 08:03:44;;;;;;;41.22;28.92;;;;;;;1.12;100.00;101676.72;4992296;28;20046;-49
2022/12/04 08:06:17;;;;;;;41.30;28.83;;;;;;;1.12;100.00;101684.78;4983821;28;20136;-49
2022/12/04 08:08:45;;;;;;;36.88;25.80;;;;;;;1.18;100.00;101683.19;5007907;28;20520;-50
2022/12/04 08:11:16;;;;;;;41.55;28.27;;;;;;;1.22;100.00;101679.13;5004981;28;20524;-53
2022/12/04 08:13:44;;;;;;;41.40;28.73;;;;;;;1.22;100.00;101685.34;5005592;28;20420;-48
2022/12/04 08:16:13;;;;;;;39.15;27.52;;;;;;;1.21;100.00;101683.69;4976704;28;20077;-49
2022/12/04 08:18:45;;;;;;;40.40;29.20;;;;;;;1.18;100.00;101683.19;4991023;28;20065;-50
2022/12/04 08:21:16;;;;;;;40.30;29.42;;;;;;;1.18;100.00;101689.44;5011267;28;20050;-48
2022/12/04 08:23:44;;;;;;;42.30;30.70;;;;;;;1.15;100.00;101705.88;4995682;28;20050;-48
2022/12/04 08:26:12;;;;;;;38.13;29.10;;;;;;;1.19;100.00;101695.63;5000534;28;20416;-49
2022/12/04 08:28:41;;;;;;;40.30;29.38;;;;;;;1.20;100.00;101698.13;5014490;28;20046;-49
2022/12/04 08:31:23;;;;;;;38.83;29.50;;;;;;;1.22;100.00;101698.75;4997017;28;20506;-49
2022/12/04 08:33:53;;;;;;;39.40;27.15;;;;;;;1.21;100.00;101701.63;4995294;28;20107;-50
2022/12/04 08:36:21;;;;;;;36.83;26.23;;;;;;;1.30;100.00;101697.84;4987733;28;20068;-51
2022/12/04 08:38:49;;;;;;;37.55;27.60;;;;;;;1.31;100.00;101694.13;4996300;28;20044;-49
2022/12/04 08:41:20;;;;;;;40.03;26.20;;;;;;;1.25;100.00;101689.50;4996700;28;20121;-49
2022/12/04 08:43:48;;;;;;;35.25;26.30;;;;;;;1.17;100.00;101687.75;5014311;28;20116;-48
2022/12/04 08:46:17;;;;;;;36.15;25.67;;;;;;;1.26;100.00;101683.13;4999807;28;20377;-50
2022/12/04 08:48:46;;;;;;;35.60;25.75;;;;;;;1.26;100.00;101691.19;5013882;28;20077;-49
2022/12/04 08:51:18;;;;;;;36.83;25.98;;;;;;;1.28;100.00;101687.28;5014090;28;20045;-49
2022/12/04 08:53:46;;;;;;;33.83;25.65;;;;;;;1.30;100.00;101691.63;5010905;28;20039;-52
2022/12/04 08:56:14;;;;;;;36.13;26.50;;;;;;;1.31;100.00;101682.56;5007976;28;20128;-48
2022/12/04 08:58:41;;;;;;;34.42;23.13;;;;;;;1.28;100.00;101673.03;5002507;28;20096;-49
2022/12/04 09:01:11;;;;;;;33.33;24.05;;;;;;;1.28;100.00;101684.59;5013763;28;20053;-50
2022/12/04 09:03:39;;;;;;;32.60;22.20;;;;;;;1.27;100.00;101672.22;5013862;28;20049;-50
2022/12/04 09:06:09;;;;;;;37.17;25.15;;;;;;;1.28;100.00;101673.88;4982064;28;20053;-48
2022/12/04 09:08:37;;;;;;;33.40;24.00;;;;;;;1.28;100.00;101679.25;5010495;28;20046;-51
2022/12/04 09:11:11;;;;;;;33.25;23.30;;;;;;;1.29;100.00;101680.06;4989908;28;20094;-48
2022/12/04 09:13:39;;;;;;;31.38;23.35;;;;;;;1.28;100.00;101683.78;5009427;28;20101;-49
2022/12/04 09:16:10;;;;;;;33.13;23.20;;;;;;;1.25;100.00;101690.34;4980546;28;20038;-46
2022/12/04 09:18:38;;;;;;;36.80;23.80;;;;;;;1.26;100.00;101683.13;4999218;28;20064;-55
2022/12/04 09:21:08;;;;;;;36.88;23.60;;;;;;;1.25;100.00;101676.94;5013718;28;20096;-49
2022/12/04 09:23:37;;;;;;;32.83;23.45;;;;;;;1.27;100.00;101680.28;4991665;28;20389;-51
2022/12/04 09:26:13;;;;;;;31.13;21.90;;;;;;;1.34;100.00;101684.88;4987113;28;20038;-51
2022/12/04 09:28:41;;;;;;;32.03;21.50;;;;;;;1.41;100.00;101689.31;4993677;28;20042;-50
2022/12/04 09:31:09;;;;;;;33.63;21.17;;;;;;;1.52;100.00;101695.25;5004077;28;20048;-53
2022/12/04 09:33:36;;;;;;;30.15;21.02;;;;;;;1.44;99.75;101688.97;4996047;28;20117;-48
2022/12/04 09:36:04;;;;;;;27.20;18.15;;;;;;;1.47;100.00;101685.06;5005100;28;20378;-52
2022/12/04 09:38:32;;;;;;;27.60;18.73;;;;;;;1.44;99.21;101698.84;5013342;28;20048;-46
2022/12/04 09:41:35;;;;;;;26.58;17.95;;;;;;;1.34;99.92;101703.69;4996065;28;20057;-52
2022/12/04 09:44:14;;;;;;;27.38;18.38;;;;;;;1.38;100.00;101694.25;5013164;28;20038;-48
2022/12/04 09:46:49;;;;;;;26.33;17.83;;;;;;;1.43;99.66;101697.19;5006262;28;20107;-47
2022/12/04 09:49:33;;;;;;;29.95;20.38;;;;;;;1.37;99.07;101695.25;5013086;28;20113;-49
2022/12/04 09:52:06;;;;;;;27.25;19.50;;;;;;;1.33;99.28;101696.66;5013260;28;20076;-50
2022/12/04 09:54:38;;;;;;;30.23;20.05;;;;;;;1.40;99.91;101697.56;4963281;28;20389;-49
2022/12/04 09:57:36;;;;;;;27.00;18.85;;;;;;;1.44;99.51;101698.84;4974557;28;20268;-50
2022/12/04 10:00:06;;;;;;;29.23;19.58;;;;;;;1.29;99.47;101690.81;4986593;28;20034;-48
2022/12/04 10:02:39;;;;;;;26.38;18.17;;;;;;;1.32;99.87;101689.59;4996175;28;20100;-48
2022/12/04 10:05:24;;;;;;;26.70;18.70;;;;;;;1.32;99.69;101684.22;4988579;28;20054;-49
2022/12/04 10:08:10;;;;;;;26.23;18.42;;;;;;;1.33;100.00;101685.91;4995716;28;20062;-48
2022/12/04 10:10:39;;;;;;;;;;;;;;;1.46;100.00;101692.28;5013341;28;20113;-47
2022/12/04 10:13:23;;;;;;;27.23;16.80;;;;;;;1.47;100.00;101687.75;5013108;28;19921;-49
2022/12/04 10:15:57;;;;;;;28.13;19.23;;;;;;;1.40;99.66;101690.34;4984263;28;20042;-52
2022/12/04 10:18:44;;;;;;;25.85;18.25;;;;;;;1.38;100.00;101686.19;4960093;28;20038;-50
2022/12/04 10:21:34;;;;;;;27.30;18.83;;;;;;;1.35;100.00;101692.75;4993915;28;20050;-47
2022/12/04 10:24:11;;;;;;;27.00;19.23;;;;;;;1.35;100.00;101695.44;4993735;28;20046;-49
2022/12/04 10:26:45;;;;;;;24.17;16.50;;;;;;;1.42;100.00;101687.47;4990010;28;20493;-51
2022/12/04 10:29:33;;;;;;;28.58;18.90;;;;;;;1.54;99.74;101690.50;5012636;28;20412;-48
2022/12/04 10:32:15;;;;;;;26.85;17.90;;;;;;;1.54;99.80;101683.31;4995428;28;20108;-47
2022/12/04 10:34:43;;;;;;;25.42;17.33;;;;;;;1.51;99.56;101685.50;4991011;28;20050;-48
2022/12/04 10:37:14;;;;;;;21.75;15.70;;;;;;;1.47;99.42;101688.59;4976795;28;20492;-51
2022/12/04 10:39:44;;;;;;;27.63;19.17;;;;;;;1.48;99.61;101684.03;5009202;28;20046;-48
2022/12/04 10:42:48;;;;;;;26.60;19.05;;;;;;;1.44;98.94;101682.75;5012604;28;20057;-50
2022/12/04 10:45:16;;;;;;;26.52;18.25;;;;;;;1.35;99.70;101683.84;4952426;28;20182;-48
2022/12/04 10:47:45;;;;;;;24.30;16.40;;;;;;;1.32;100.00;101692.28;4994064;28;20042;-49
2022/12/04 10:50:19;;;;;;;22.55;14.88;;;;;;;1.44;100.00;101690.78;4977792;28;20142;-49
2022/12/04 10:52:47;;;;;;;23.50;16.27;;;;;;;1.45;99.70;101690.63;4995291;28;20046;-48
2022/12/04 10:55:26;;;;;;;28.20;18.63;;;;;;;1.47;99.76;101685.91;4995334;28;20045;-49
2022/12/04 10:57:54;;;;;;;28.65;18.55;;;;;;;1.45;99.50;101689.78;5012036;28;20034;-50
2022/12/04 11:00:28;;;;;;;25.55;16.58;;;;;;;1.37;100.00;101687.19;5000710;28;20046;-50
2022/12/04 11:03:02;;;;;;;25.25;17.33;;;;;;;1.35;100.00;101689.22;5013771;28;20045;-46
2022/12/04 11:05:29;;;;;;;25.10;17.33;;;;;;;1.30;100.00;101691.63;5017351;28;20072;-50
2022/12/04 11:07:58;;;;;;;26.75;17.45;;;;;;;1.25;100.00;101673.38;5016664;28;20046;-49
2022/12/04 11:10:30;;;;;;;25.02;17.73;;;;;;;1.21;100.00;101672.13;5010930;28;20497;-48
2022/12/04 11:13:10;;;;;;;22.50;14.68;;;;;;;1.17;100.00;101660.91;5006580;28;20038;-51
2022/12/04 11:15:49;;;;;;;22.75;15.30;;;;;;;1.20;100.00;101660.56;5013796;28;20053;-48
2022/12/04 11:18:20;;;;;;;26.13;16.67;;;;;;;1.27;100.00;101650.75;5016030;28;20038;-48
2022/12/04 11:20:59;;;;;;;22.02;14.20;;;;;;;1.36;100.00;101656.00;4984575;28;20046;-49
2022/12/04 11:23:30;;;;;;;22.38;15.75;;;;;;;1.41;100.00;101656.25;5006928;28;20492;-49
2022/12/04 11:25:58;;;;;;;25.50;16.00;;;;;;;1.46;100.00;101653.84;5001914;28;20042;-51
2022/12/04 11:28:33;;;;;;;24.80;17.63;;;;;;;1.44;100.00;101653.19;5015625;28;20077;-49
2022/12/04 11:31:13;;;;;;;22.63;15.18;;;;;;;1.45;100.00;101655.72;5003157;28;20146;-51
2022/12/04 11:33:56;;;;;;;23.25;15.63;;;;;;;1.44;100.00;101639.78;5003378;28;20125;-51
2022/12/04 11:36:42;;;;;;;23.67;16.40;;;;;;;1.39;100.00;101642.19;4972618;28;20038;-49
2022/12/04 11:39:14;;;;;;;25.50;16.40;;;;;;;1.33;100.00;101642.97;4993774;28;20042;-50
2022/12/04 11:41:41;;;;;;;24.00;16.38;;;;;;;1.28;100.00;101649.72;4992668;28;20092;-50
2022/12/04 11:44:25;;;;;;;22.77;15.40;;;;;;;1.34;100.00;101641.91;5015339;28;20066;-54
2022/12/04 11:46:55;;;;;;;24.58;17.05;;;;;;;1.28;100.00;101635.47;4996143;28;20046;-51
2022/12/04 11:49:25;;;;;;;23.95;16.80;;;;;;;1.21;100.00;101634.53;5001369;28;20157;-50